createdAt,value
2017-05-02T00:02:17.767Z,8.44
2017-05-02T00:04:45.701Z,7.96
2017-05-02T00:07:13.659Z,7.60
2017-05-02T00:09:41.597Z,7.10
2017-05-02T00:12:09.524Z,7.36
2017-05-02T00:14:37.084Z,6.96
2017-05-02T00:17:05.021Z,7.92
2017-05-02T00:19:32.952Z,7.32
2017-05-02T00:22:00.490Z,7.80
2017-05-02T00:24:28.456Z,7.40
2017-05-02T00:26:56.387Z,6.80
2017-05-02T00:29:24.345Z,6.58
2017-05-02T00:31:52.643Z,7.28
2017-05-02T00:34:20.580Z,7.30
2017-05-02T00:36:48.539Z,6.90
2017-05-02T00:39:16.085Z,7.28
2017-05-02T00:41:44.017Z,6.50
2017-05-02T00:44:11.992Z,6.30
2017-05-02T00:46:39.965Z,6.12
2017-05-02T00:49:07.892Z,6.32
2017-05-02T00:51:35.852Z,7.50
2017-05-02T00:54:03.780Z,6.98
2017-05-02T00:56:31.708Z,8.46
2017-05-02T00:59:00.040Z,6.22
2017-05-02T01:01:27.977Z,6.76
2017-05-02T01:03:55.905Z,6.68
2017-05-02T01:06:23.859Z,6.58
2017-05-02T01:08:51.792Z,6.36
2017-05-02T01:11:19.729Z,6.40
2017-05-02T01:13:47.289Z,5.82
2017-05-02T01:16:15.220Z,6.36
2017-05-02T01:18:42.767Z,5.74
2017-05-02T01:21:10.732Z,5.72
2017-05-02T01:23:38.665Z,6.40
2017-05-02T01:26:06.195Z,6.64
2017-05-02T01:28:34.157Z,5.48
2017-05-02T01:31:02.087Z,6.32
2017-05-02T01:33:29.613Z,5.66
2017-05-02T01:35:57.209Z,6.22
2017-05-02T01:38:25.155Z,5.78
2017-05-02T01:40:52.691Z,5.84
2017-05-02T01:43:20.637Z,6.70
2017-05-02T01:45:48.564Z,6.08
2017-05-02T01:48:16.491Z,6.38
2017-05-02T01:50:44.444Z,6.34
2017-05-02T01:53:11.984Z,6.94
2017-05-02T01:55:39.919Z,7.02
2017-05-02T01:58:07.479Z,8.72
2017-05-02T02:00:35.412Z,6.58
2017-05-02T02:03:03.345Z,6.52
2017-05-02T02:05:31.297Z,6.80
2017-05-02T02:07:59.617Z,6.68
2017-05-02T02:10:27.560Z,6.38
2017-05-02T02:12:55.842Z,6.50
2017-05-02T02:15:23.772Z,6.04
2017-05-02T02:17:51.309Z,6.78
2017-05-02T02:20:18.869Z,6.48
2017-05-02T02:22:46.901Z,6.42
2017-05-02T02:25:14.424Z,6.30
2017-05-02T02:27:42.385Z,5.80
2017-05-02T02:30:10.320Z,5.80
2017-05-02T02:32:38.248Z,5.82
2017-05-02T02:35:06.206Z,6.22
2017-05-02T02:37:34.135Z,6.32
2017-05-02T02:40:01.673Z,6.26
2017-05-02T02:42:29.644Z,6.70
2017-05-02T02:44:57.575Z,5.36
2017-05-02T02:47:25.108Z,5.82
2017-05-02T02:49:53.071Z,6.88
2017-05-02T02:52:20.991Z,6.86
2017-05-02T02:54:49.292Z,6.50
2017-05-02T02:57:17.247Z,7.50
2017-05-02T02:59:45.547Z,8.68
2017-05-02T03:02:13.475Z,6.22
2017-05-02T03:04:41.440Z,7.24
2017-05-02T03:07:08.973Z,6.82
2017-05-02T03:09:36.913Z,6.38
2017-05-02T03:12:04.863Z,6.88
2017-05-02T03:14:32.395Z,7.06
2017-05-02T03:17:00.332Z,6.64
2017-05-02T03:19:28.278Z,6.68
2017-05-02T03:21:56.208Z,6.26
2017-05-02T03:24:24.141Z,7.02
2017-05-02T03:26:52.092Z,6.12
2017-05-02T03:29:20.012Z,6.74
2017-05-02T03:31:47.947Z,7.80
2017-05-02T03:34:15.911Z,7.72
2017-05-02T03:36:43.448Z,6.90
2017-05-02T03:39:11.393Z,7.26
2017-05-02T03:41:39.344Z,6.46
2017-05-02T03:44:06.876Z,6.22
2017-05-02T03:46:34.801Z,6.44
2017-05-02T03:49:02.757Z,6.06
2017-05-02T03:51:30.711Z,6.78
2017-05-02T03:53:58.644Z,6.34
2017-05-02T03:56:26.591Z,6.42
2017-05-02T03:58:54.888Z,6.30
2017-05-02T04:01:22.816Z,7.10
2017-05-02T04:03:50.375Z,6.32
2017-05-02T04:06:18.305Z,6.76
2017-05-02T04:08:46.232Z,6.98
2017-05-02T04:11:13.864Z,6.68
2017-05-02T04:13:41.791Z,7.36
2017-05-02T04:16:09.323Z,7.66
2017-05-02T04:18:37.652Z,6.60
2017-05-02T04:21:05.595Z,7.64
2017-05-02T04:23:33.523Z,7.08
2017-05-02T04:26:01.480Z,6.36
2017-05-02T04:28:29.404Z,6.34
2017-05-02T04:30:57.339Z,6.62
2017-05-02T04:33:24.909Z,6.88
2017-05-02T04:35:52.448Z,7.44
2017-05-02T04:38:20.385Z,6.70
2017-05-02T04:40:48.463Z,6.70
2017-05-02T04:43:16.015Z,6.98
2017-05-02T04:45:43.957Z,6.80
2017-05-02T04:48:12.266Z,6.14
2017-05-02T04:50:40.200Z,6.78
2017-05-02T04:53:08.496Z,6.12
2017-05-02T04:55:36.055Z,6.28
2017-05-02T04:58:03.983Z,7.06
2017-05-02T05:00:31.912Z,5.74
2017-05-02T05:02:59.863Z,8.10
2017-05-02T05:05:27.403Z,6.38
2017-05-02T05:07:55.702Z,5.76
2017-05-02T05:10:23.272Z,7.04
2017-05-02T05:12:51.227Z,6.40
2017-05-02T05:15:19.530Z,6.70
2017-05-02T05:17:47.467Z,6.70
2017-05-02T05:20:15.787Z,7.00
2017-05-02T05:22:43.719Z,6.98
2017-05-02T05:25:12.024Z,6.14
2017-05-02T05:27:39.589Z,7.68
2017-05-02T05:30:07.528Z,7.50
2017-05-02T05:32:35.835Z,8.47
2017-05-02T05:35:03.802Z,6.88
2017-05-02T05:37:31.339Z,7.58
2017-05-02T05:39:59.640Z,7.88
2017-05-02T05:42:27.593Z,7.30
2017-05-02T05:44:55.519Z,7.12
2017-05-02T05:47:23.453Z,7.32
2017-05-02T05:49:51.417Z,7.83
2017-05-02T05:52:19.352Z,8.44
2017-05-02T05:54:47.655Z,7.60
2017-05-02T05:57:15.232Z,7.12
2017-05-02T05:59:43.156Z,7.36
2017-05-02T06:02:11.085Z,7.86
2017-05-02T06:04:39.043Z,8.76
2017-05-02T06:07:06.620Z,7.40
2017-05-02T06:09:34.558Z,7.82
2017-05-02T06:12:02.513Z,9.12
2017-05-02T06:14:30.439Z,7.76
2017-05-02T06:16:58.375Z,6.46
2017-05-02T06:19:25.940Z,6.60
2017-05-02T06:21:53.876Z,6.94
2017-05-02T06:24:21.812Z,7.76
2017-05-02T06:26:49.778Z,6.20
2017-05-02T06:29:17.717Z,6.98
2017-05-02T06:31:45.648Z,6.34
2017-05-02T06:34:13.199Z,6.24
2017-05-02T06:36:41.140Z,7.34
2017-05-02T06:39:09.103Z,6.58
2017-05-02T06:41:36.649Z,7.26
2017-05-02T06:44:04.576Z,7.42
2017-05-02T06:46:32.523Z,6.88
2017-05-02T06:49:00.475Z,6.80
2017-05-02T06:51:28.408Z,6.32
2017-05-02T06:53:56.336Z,7.12
2017-05-02T06:56:24.291Z,7.22
2017-05-02T06:58:52.225Z,7.16
2017-05-02T07:01:19.760Z,8.02
2017-05-02T07:03:47.720Z,7.22
2017-05-02T07:06:15.654Z,6.90
2017-05-02T07:08:43.579Z,6.30
2017-05-02T07:11:11.903Z,6.32
2017-05-02T07:13:39.443Z,7.34
2017-05-02T07:16:07.375Z,6.54
2017-05-02T07:18:35.336Z,6.40
2017-05-02T07:21:03.272Z,6.10
2017-05-02T07:23:31.208Z,7.36
2017-05-02T07:25:58.771Z,6.54
2017-05-02T07:28:26.710Z,8.10
2017-05-02T07:30:54.635Z,7.46
2017-05-02T07:33:22.608Z,8.10
2017-05-02T07:35:50.546Z,6.04
2017-05-02T07:38:18.845Z,6.10
2017-05-02T07:40:46.396Z,6.46
2017-05-02T07:43:14.332Z,6.68
2017-05-02T07:45:42.273Z,6.14
2017-05-02T07:48:10.228Z,5.92
2017-05-02T07:50:37.758Z,5.72
2017-05-02T07:53:05.691Z,6.30
2017-05-02T07:55:33.648Z,6.26
2017-05-02T07:58:02.004Z,6.32
2017-05-02T08:00:29.945Z,6.90
2017-05-02T08:02:57.925Z,6.18
2017-05-02T08:05:25.855Z,8.16
2017-05-02T08:07:53.791Z,6.20
2017-05-02T08:10:21.749Z,8.10
2017-05-02T08:12:49.689Z,5.90
2017-05-02T08:15:17.217Z,5.96
2017-05-02T08:17:45.180Z,7.70
2017-05-02T08:20:13.112Z,6.70
2017-05-02T08:22:41.044Z,6.26
2017-05-02T08:25:08.620Z,6.34
2017-05-02T08:27:36.944Z,6.66
2017-05-02T08:30:04.875Z,5.34
2017-05-02T08:32:32.841Z,6.18
2017-05-02T08:35:01.144Z,6.74
2017-05-02T08:37:29.080Z,6.46
2017-05-02T08:39:57.403Z,6.60
2017-05-02T08:42:24.956Z,9.04
2017-05-02T08:44:52.899Z,8.10
2017-05-02T08:47:20.859Z,5.80
2017-05-02T08:49:49.164Z,5.26
2017-05-02T08:52:17.099Z,7.28
2017-05-02T08:54:45.432Z,5.88
2017-05-02T08:57:13.367Z,6.00
2017-05-02T08:59:41.675Z,6.54
2017-05-02T09:02:09.632Z,6.70
2017-05-02T09:04:37.564Z,6.48
2017-05-02T09:07:05.507Z,8.32
2017-05-02T09:09:33.833Z,6.70
2017-05-02T09:12:01.768Z,6.90
2017-05-02T09:14:29.718Z,7.42
2017-05-02T09:16:57.676Z,9.60
2017-05-02T09:19:25.616Z,6.72
2017-05-02T09:21:53.161Z,6.70
2017-05-02T09:24:21.128Z,6.22
2017-05-02T09:26:49.428Z,6.04
2017-05-02T09:29:16.974Z,5.64
2017-05-02T09:31:45.313Z,5.08
2017-05-02T09:34:13.253Z,6.30
2017-05-02T09:36:40.800Z,6.56
2017-05-02T09:39:08.787Z,5.58
2017-05-02T09:41:36.720Z,5.44
2017-05-02T09:44:05.028Z,5.70
2017-05-02T09:46:32.983Z,5.80
2017-05-02T09:49:00.925Z,4.68
2017-05-02T09:51:28.864Z,5.94
2017-05-02T09:53:56.837Z,7.90
2017-05-02T09:56:24.738Z,6.48
2017-05-02T09:58:52.708Z,5.26
2017-05-02T10:01:21.044Z,5.26
2017-05-02T10:03:48.981Z,5.74
2017-05-02T10:06:16.923Z,4.88
2017-05-02T10:08:44.882Z,6.04
2017-05-02T10:11:12.922Z,4.52
2017-05-02T10:13:40.453Z,5.36
2017-05-02T10:16:08.408Z,5.44
2017-05-02T10:18:36.720Z,5.56
2017-05-02T10:21:04.656Z,5.40
2017-05-02T10:23:32.980Z,5.72
2017-05-02T10:26:00.920Z,5.56
2017-05-02T10:28:28.852Z,5.66
2017-05-02T10:30:56.808Z,5.10
2017-05-02T10:33:24.743Z,6.84
2017-05-02T10:35:52.323Z,5.70
2017-05-02T10:38:20.287Z,6.00
2017-05-02T10:40:48.224Z,5.62
2017-05-02T10:43:15.761Z,6.50
2017-05-02T10:45:43.325Z,6.12
2017-05-02T10:48:11.264Z,5.70
2017-05-02T10:50:39.204Z,6.36
2017-05-02T10:53:07.169Z,6.28
2017-05-02T10:55:35.103Z,6.34
2017-05-02T10:58:03.031Z,5.54
2017-05-02T11:00:30.989Z,6.06
2017-05-02T11:02:58.932Z,7.14
2017-05-02T11:05:26.471Z,5.52
2017-05-02T11:07:54.437Z,5.00
2017-05-02T11:10:22.376Z,5.38
2017-05-02T11:12:50.308Z,6.02
2017-05-02T11:15:18.264Z,5.54
2017-05-02T11:17:46.563Z,5.54
2017-05-02T11:20:14.507Z,5.26
2017-05-02T11:22:42.460Z,4.68
2017-05-02T11:25:10.396Z,4.82
2017-05-02T11:27:38.341Z,5.12
2017-05-02T11:30:06.296Z,5.28
2017-05-02T11:32:34.609Z,5.20
2017-05-02T11:35:02.539Z,6.02
2017-05-02T11:37:30.916Z,6.60
2017-05-02T11:39:58.835Z,5.22
2017-05-02T11:42:26.788Z,5.48
2017-05-02T11:44:54.740Z,5.80
2017-05-02T11:47:23.039Z,6.42
2017-05-02T11:49:50.568Z,5.80
2017-05-02T11:52:18.899Z,5.80
2017-05-02T11:54:46.842Z,6.30
2017-05-02T11:57:14.385Z,6.14
2017-05-02T11:59:42.348Z,6.46
2017-05-02T12:02:12.181Z,5.78
2017-05-02T12:04:40.109Z,5.86
2017-05-02T12:07:07.682Z,6.04
2017-05-02T12:09:35.620Z,6.64
2017-05-02T12:12:03.547Z,5.10
2017-05-02T12:14:31.515Z,7.34
2017-05-02T12:16:59.460Z,6.38
2017-05-02T12:19:27.405Z,5.54
2017-05-02T12:21:55.363Z,6.72
2017-05-02T12:24:23.294Z,6.84
2017-05-02T12:26:51.223Z,5.94
2017-05-02T12:29:19.191Z,7.18
2017-05-02T12:31:47.133Z,9.02
2017-05-02T12:34:14.691Z,6.92
2017-05-02T12:36:42.643Z,6.28
2017-05-02T12:39:10.183Z,6.64
2017-05-02T12:41:38.491Z,6.32
2017-05-02T12:44:06.446Z,6.92
2017-05-02T12:46:33.970Z,7.30
2017-05-02T12:49:01.912Z,6.88
2017-05-02T12:51:29.875Z,7.08
2017-05-02T12:53:57.828Z,6.96
2017-05-02T12:56:25.769Z,6.02
2017-05-02T12:58:54.091Z,6.72
2017-05-02T13:01:22.048Z,6.94
2017-05-02T13:03:49.609Z,6.24
2017-05-02T13:06:17.541Z,7.42
2017-05-02T13:08:45.867Z,6.14
2017-05-02T13:11:13.811Z,6.50
2017-05-02T13:13:41.744Z,6.32
2017-05-02T13:16:09.747Z,5.84
2017-05-02T13:18:38.060Z,5.70
2017-05-02T13:21:06.000Z,5.62
2017-05-02T13:23:33.560Z,5.96
2017-05-02T13:26:01.086Z,6.16
2017-05-02T13:28:29.024Z,6.74
2017-05-02T13:30:56.583Z,6.30
2017-05-02T13:33:24.519Z,5.62
2017-05-02T13:35:52.820Z,6.02
2017-05-02T13:38:20.784Z,5.78
2017-05-02T13:40:48.720Z,6.32
2017-05-02T13:43:17.033Z,6.72
2017-05-02T13:45:44.992Z,6.48
2017-05-02T13:48:12.541Z,6.20
2017-05-02T13:50:40.845Z,6.10
2017-05-02T13:53:08.804Z,6.32
2017-05-02T13:55:36.732Z,6.48
2017-05-02T13:58:04.269Z,6.08
2017-05-02T14:00:32.240Z,7.26
2017-05-02T14:03:00.176Z,8.32
2017-05-02T14:05:28.111Z,6.88
2017-05-02T14:07:56.067Z,8.34
2017-05-02T14:10:23.999Z,7.14
2017-05-02T14:12:51.540Z,7.18
2017-05-02T14:15:19.495Z,7.72
2017-05-02T14:17:47.809Z,8.12
2017-05-02T14:20:15.744Z,7.88
2017-05-02T14:22:44.076Z,7.66
2017-05-02T14:25:12.008Z,7.68
2017-05-02T14:27:39.590Z,7.98
2017-05-02T14:30:07.515Z,7.16
2017-05-02T14:32:35.080Z,7.36
2017-05-02T14:35:03.415Z,7.86
2017-05-02T14:37:31.352Z,6.66
2017-05-02T14:39:59.293Z,7.80
2017-05-02T14:42:26.869Z,7.00
2017-05-02T14:44:54.796Z,6.80
2017-05-02T14:47:22.727Z,7.20
2017-05-02T14:49:50.687Z,6.54
2017-05-02T14:52:18.224Z,7.12
2017-05-02T14:54:46.557Z,7.06
2017-05-02T14:57:14.528Z,8.22
2017-05-02T14:59:42.460Z,7.38
2017-05-02T15:02:10.413Z,6.18
2017-05-02T15:04:38.736Z,6.44
2017-05-02T15:07:06.664Z,6.52
2017-05-02T15:09:34.964Z,6.24
2017-05-02T15:12:02.969Z,6.14
2017-05-02T15:14:30.887Z,6.28
2017-05-02T15:16:59.202Z,6.58
2017-05-02T15:19:27.148Z,6.06
2017-05-02T15:21:55.075Z,5.98
2017-05-02T15:24:23.009Z,5.98
2017-05-02T15:26:50.959Z,5.52
2017-05-02T15:29:18.901Z,5.22
2017-05-02T15:31:46.833Z,5.82
2017-05-02T15:34:14.401Z,5.42
2017-05-02T15:36:42.341Z,5.26
2017-05-02T15:39:10.279Z,5.78
2017-05-02T15:41:38.219Z,6.04
2017-05-02T15:44:06.159Z,5.76
2017-05-02T15:46:34.095Z,5.88
2017-05-02T15:49:02.449Z,5.88
2017-05-02T15:51:30.388Z,5.52
2017-05-02T15:53:58.328Z,6.48
2017-05-02T15:56:26.295Z,6.42
2017-05-02T15:58:54.250Z,6.62
2017-05-02T16:01:22.543Z,6.54
2017-05-02T16:03:50.499Z,7.54
2017-05-02T16:06:18.808Z,7.92
2017-05-02T16:08:46.739Z,7.78
2017-05-02T16:11:15.071Z,7.46
2017-05-02T16:13:43.005Z,8.20
2017-05-02T16:16:10.978Z,8.08
2017-05-02T16:18:39.321Z,7.78
2017-05-02T16:21:06.853Z,8.30
2017-05-02T16:23:34.805Z,9.04
2017-05-02T16:26:02.759Z,8.96
2017-05-02T16:28:30.319Z,8.82
2017-05-02T16:30:58.617Z,8.76
2017-05-02T16:33:26.193Z,8.84
2017-05-02T16:35:54.231Z,8.66
2017-05-02T16:38:21.767Z,8.58
2017-05-02T16:40:50.107Z,7.96
2017-05-02T16:43:18.049Z,8.36
2017-05-02T16:45:45.984Z,9.46
2017-05-02T16:48:13.940Z,9.16
2017-05-02T16:50:41.484Z,8.60
2017-05-02T16:53:09.429Z,8.98
2017-05-02T16:55:37.399Z,8.42
2017-05-02T16:58:04.954Z,8.98
2017-05-02T17:00:32.491Z,8.68
2017-05-02T17:03:00.456Z,9.28
2017-05-02T17:05:28.778Z,8.48
2017-05-02T17:07:56.708Z,8.00
2017-05-02T17:10:25.072Z,8.02
2017-05-02T17:12:52.984Z,9.24
2017-05-02T17:15:20.937Z,8.78
2017-05-02T17:17:48.887Z,8.90
2017-05-02T17:20:17.206Z,8.58
2017-05-02T17:22:45.148Z,9.32
2017-05-02T17:25:13.546Z,8.86
2017-05-02T17:27:41.103Z,8.20
2017-05-02T17:30:09.063Z,9.20
2017-05-02T17:32:37.025Z,9.00
2017-05-02T17:35:04.571Z,10.60
2017-05-02T17:37:32.666Z,9.96
2017-05-02T17:40:01.160Z,8.78
2017-05-02T17:42:29.331Z,11.94
2017-05-02T17:44:57.510Z,10.38
2017-05-02T17:47:25.510Z,10.76
2017-05-02T17:49:53.773Z,10.76
2017-05-02T17:52:22.282Z,9.80
2017-05-02T17:54:51.241Z,9.36
2017-05-02T17:57:19.927Z,9.68
2017-05-02T17:59:48.692Z,9.76
2017-05-02T18:02:17.700Z,10.62
2017-05-02T18:04:46.683Z,9.56
2017-05-02T18:07:15.218Z,10.62
2017-05-02T18:09:43.900Z,10.12
2017-05-02T18:12:12.868Z,10.90
2017-05-02T18:14:41.826Z,10.36
2017-05-02T18:17:10.919Z,10.88
2017-05-02T18:19:39.892Z,10.24
2017-05-02T18:22:08.591Z,10.32
2017-05-02T18:24:37.642Z,11.66
2017-05-02T18:27:06.208Z,10.80
2017-05-02T18:29:35.158Z,10.44
2017-05-02T18:32:04.238Z,10.88
2017-05-02T18:34:33.503Z,10.32
2017-05-02T18:37:02.497Z,9.94
2017-05-02T18:39:31.566Z,11.82
2017-05-02T18:42:00.521Z,11.62
2017-05-02T18:44:29.478Z,10.84
2017-05-02T18:46:58.524Z,11.80
2017-05-02T18:49:27.071Z,11.02
2017-05-02T18:51:56.426Z,12.24
2017-05-02T18:54:25.518Z,11.00
2017-05-02T18:56:54.100Z,10.28
2017-05-02T18:59:22.742Z,11.32
2017-05-02T19:01:52.167Z,10.42
2017-05-02T19:04:21.125Z,10.90
2017-05-02T19:06:50.980Z,10.94
2017-05-02T19:09:19.875Z,10.66
2017-05-02T19:11:48.856Z,10.92
2017-05-02T19:14:18.183Z,9.62
2017-05-02T19:16:47.280Z,9.32
2017-05-02T19:19:16.338Z,10.10
2017-05-02T19:21:45.791Z,10.84
2017-05-02T19:24:14.875Z,10.70
2017-05-02T19:26:43.839Z,10.22
2017-05-02T19:29:12.815Z,9.76
2017-05-02T19:31:42.617Z,10.04
2017-05-02T19:34:12.160Z,10.20
2017-05-02T19:36:40.865Z,10.22
2017-05-02T19:39:10.366Z,11.20
2017-05-02T19:41:39.306Z,11.00
2017-05-02T19:44:10.005Z,10.20
2017-05-02T19:46:39.717Z,10.12
2017-05-02T19:49:09.103Z,11.10
2017-05-02T19:51:39.645Z,10.28
2017-05-02T19:54:08.952Z,10.32
2017-05-02T19:56:39.828Z,10.50
2017-05-02T19:59:09.063Z,9.46
2017-05-02T20:01:38.582Z,10.80
2017-05-02T20:04:07.670Z,11.78
2017-05-02T20:06:36.643Z,11.98
2017-05-02T20:09:06.309Z,11.50
2017-05-02T20:11:35.776Z,11.36
2017-05-02T20:14:05.363Z,10.98
2017-05-02T20:16:34.940Z,12.64
2017-05-02T20:19:05.209Z,15.28
2017-05-02T20:21:35.049Z,12.50
2017-05-02T20:24:04.336Z,12.38
2017-05-02T20:26:33.568Z,13.42
2017-05-02T20:29:02.271Z,11.58
2017-05-02T20:31:31.227Z,11.90
2017-05-02T20:34:00.343Z,12.32
2017-05-02T20:36:28.924Z,11.96
2017-05-02T20:38:57.984Z,12.22
2017-05-02T20:41:27.403Z,11.20
2017-05-02T20:43:56.770Z,11.52
2017-05-02T20:46:25.741Z,12.82
2017-05-02T20:48:55.148Z,13.02
2017-05-02T20:51:24.107Z,12.50
2017-05-02T20:53:53.064Z,12.16
2017-05-02T20:56:21.703Z,12.30
2017-05-02T20:58:50.545Z,12.90
2017-05-02T21:01:19.250Z,12.20
2017-05-02T21:03:48.022Z,13.52
2017-05-02T21:06:16.537Z,13.24
2017-05-02T21:08:44.740Z,13.16
2017-05-02T21:11:13.157Z,14.62
2017-05-02T21:13:41.547Z,13.76
2017-05-02T21:16:09.611Z,12.22
2017-05-02T21:18:37.627Z,14.30
2017-05-02T21:21:05.556Z,14.06
2017-05-02T21:23:33.524Z,14.86
2017-05-02T21:26:01.479Z,12.98
2017-05-02T21:28:29.788Z,13.32
2017-05-02T21:30:57.760Z,12.60
2017-05-02T21:33:25.703Z,13.68
2017-05-02T21:35:54.032Z,13.58
2017-05-02T21:38:21.988Z,13.90
2017-05-02T21:40:49.961Z,12.70
2017-05-02T21:43:17.912Z,12.98
2017-05-02T21:45:45.854Z,13.04
2017-05-02T21:48:13.789Z,13.68
2017-05-02T21:50:41.756Z,12.72
2017-05-02T21:53:09.695Z,12.42
2017-05-02T21:55:37.637Z,11.54
2017-05-02T21:58:05.200Z,12.80
2017-05-02T22:00:33.593Z,13.48
2017-05-02T22:03:01.888Z,13.46
2017-05-02T22:05:29.848Z,13.56
2017-05-02T22:07:57.783Z,12.50
2017-05-02T22:10:25.724Z,13.66
2017-05-02T22:12:53.683Z,13.02
2017-05-02T22:15:21.619Z,13.74
2017-05-02T22:17:49.160Z,13.62
2017-05-02T22:20:17.507Z,11.86
2017-05-02T22:22:45.443Z,12.84
2017-05-02T22:25:13.379Z,12.76
2017-05-02T22:27:41.709Z,12.72
2017-05-02T22:30:09.651Z,13.54
2017-05-02T22:32:37.592Z,14.50
2017-05-02T22:35:05.561Z,13.84
2017-05-02T22:37:33.095Z,14.32
2017-05-02T22:40:01.031Z,13.38
2017-05-02T22:42:28.997Z,14.66
2017-05-02T22:44:56.936Z,14.10
2017-05-02T22:47:25.243Z,14.04
2017-05-02T22:49:53.205Z,14.08
2017-05-02T22:52:21.164Z,13.84
2017-05-02T22:54:49.478Z,12.30
2017-05-02T22:57:17.043Z,12.90
2017-05-02T22:59:44.988Z,13.00
2017-05-02T23:02:12.894Z,13.90
2017-05-02T23:04:40.504Z,13.94
2017-05-02T23:07:08.807Z,13.64
2017-05-02T23:09:36.744Z,14.52
2017-05-02T23:12:04.714Z,14.84
2017-05-02T23:14:32.645Z,14.76
2017-05-02T23:17:00.571Z,13.94
2017-05-02T23:19:28.534Z,14.10
2017-05-02T23:21:56.836Z,13.72
2017-05-02T23:24:24.911Z,13.78
2017-05-02T23:26:52.852Z,13.72
2017-05-02T23:29:21.170Z,14.34
2017-05-02T23:31:49.132Z,13.10
2017-05-02T23:34:17.064Z,13.60
2017-05-02T23:36:45.377Z,13.84
2017-05-02T23:39:13.341Z,13.60
2017-05-02T23:41:41.280Z,12.70
2017-05-02T23:44:08.835Z,14.12
2017-05-02T23:46:36.796Z,14.58
2017-05-02T23:49:04.770Z,14.90
2017-05-02T23:51:32.319Z,13.94
2017-05-02T23:54:00.256Z,13.30
2017-05-02T23:56:28.224Z,14.08
2017-05-02T23:58:56.160Z,14.16
